sensor_id;sensor_type;location;lat;lon;timestamp;temperature;humidity
13211;DHT22;6670;51.53087800;7.23266500;2023-05-14T13:39:38;23.60;64.50
13211;DHT22;6670;51.53087800;7.23266500;2023-05-14T13:42:06;23.20;66.80
13211;DHT22;6670;51.53087800;7.23266500;2023-05-14T13:44:33;23.60;69.50
13211;DHT22;6670;51.53087800;7.23266500;2023-05-14T13:47:01;23.90;68.60
13211;DHT22;6670;51.53087800;7.23266500;2023-05-14T13:49:35;24.00;63.80
13211;DHT22;6670;51.53087800;7.23266500;2023-05-14T13:52:04;23.60;61.60
13211;DHT22;6670;51.53087800;7.23266500;2023-05-14T13:54:31;23.70;63.30
13211;DHT22;6670;51.53087800;7.23266500;2023-05-14T13:57:14;24.00;64.60
13211;DHT22;6670;51.53087800;7.23266500;2023-05-14T13:59:42;24.00;63.30
13211;DHT22;6670;51.53087800;7.23266500;2023-05-14T14:02:09;23.90;66.50
13211;DHT22;6670;51.53087800;7.23266500;2023-05-14T14:04:36;24.30;66.40
13211;DHT22;6670;51.53087800;7.23266500;2023-05-14T14:07:04;24.20;64.50
13211;DHT22;6670;51.53087800;7.23266500;2023-05-14T14:09:31;24.10;63.30
13211;DHT22;6670;51.53087800;7.23266500;2023-05-14T14:12:02;24.30;65.00
13211;DHT22;6670;51.53087800;7.23266500;2023-05-14T14:14:30;24.70;64.70
13211;DHT22;6670;51.53087800;7.23266500;2023-05-14T14:16:58;25.00;62.60
13211;DHT22;6670;51.53087800;7.23266500;2023-05-14T14:19:28;24.50;62.40
13211;DHT22;6670;51.53087800;7.23266500;2023-05-14T14:21:56;23.90;63.70
13211;DHT22;6670;51.53087800;7.23266500;2023-05-14T14:24:23;24.50;66.10
13211;DHT22;6670;51.53087800;7.23266500;2023-05-14T14:26:50;25.00;64.50
13211;DHT22;6670;51.53087800;7.23266500;2023-05-14T14:29:18;24.70;62.30
13211;DHT22;6670;51.53087800;7.23266500;2023-05-14T14:31:48;25.00;62.80
13211;DHT22;6670;51.53087800;7.23266500;2023-05-14T14:34:15;25.30;60.90
13211;DHT22;6670;51.53087800;7.23266500;2023-05-14T14:36:43;24.90;63.30
13211;DHT22;6670;51.53087800;7.23266500;2023-05-14T14:39:10;24.40;66.50
13211;DHT22;6670;51.53087800;7.23266500;2023-05-14T14:41:38;24.10;64.30
13211;DHT22;6670;51.53087800;7.23266500;2023-05-14T14:44:05;25.00;61.10
13211;DHT22;6670;51.53087800;7.23266500;2023-05-14T14:46:33;25.30;63.00
13211;DHT22;6670;51.53087800;7.23266500;2023-05-14T14:49:01;25.70;62.60
13211;DHT22;6670;51.53087800;7.23266500;2023-05-14T14:51:29;24.60;66.20
13211;DHT22;6670;51.53087800;7.23266500;2023-05-14T14:53:56;24.80;67.50
13211;DHT22;6670;51.53087800;7.23266500;2023-05-14T14:56:34;25.40;63.80
13211;DHT22;6670;51.53087800;7.23266500;2023-05-14T14:59:04;25.50;61.70
13211;DHT22;6670;51.53087800;7.23266500;2023-05-14T15:01:39;25.60;64.10
13211;DHT22;6670;51.53087800;7.23266500;2023-05-14T15:04:07;25.40;62.80
13211;DHT22;6670;51.53087800;7.23266500;2023-05-14T15:06:35;25.00;64.90
13211;DHT22;6670;51.53087800;7.23266500;2023-05-14T15:09:02;24.90;64.30
13211;DHT22;6670;51.53087800;7.23266500;2023-05-14T15:11:30;25.10;63.90
13211;DHT22;6670;51.53087800;7.23266500;2023-05-14T15:13:57;25.30;62.50
13211;DHT22;6670;51.53087800;7.23266500;2023-05-14T15:16:24;25.20;62.30
13211;DHT22;6670;51.53087800;7.23266500;2023-05-14T15:18:52;23.80;63.20
13211;DHT22;6670;51.53087800;7.23266500;2023-05-14T15:21:23;24.00;66.20
13211;DHT22;6670;51.53087800;7.23266500;2023-05-14T15:23:50;24.50;66.10
13211;DHT22;6670;51.53087800;7.23266500;2023-05-14T15:26:18;24.30;65.50
13211;DHT22;6670;51.53087800;7.23266500;2023-05-14T15:28:46;24.20;66.10
13211;DHT22;6670;51.53087800;7.23266500;2023-05-14T15:31:13;24.20;65.60
13211;DHT22;6670;51.53087800;7.23266500;2023-05-14T15:33:42;24.30;66.40
13211;DHT22;6670;51.53087800;7.23266500;2023-05-14T15:36:09;23.50;67.10
13211;DHT22;6670;51.53087800;7.23266500;2023-05-14T15:38:38;23.90;69.10
13211;DHT22;6670;51.53087800;7.23266500;2023-05-14T15:41:05;23.70;66.40
13211;DHT22;6670;51.53087800;7.23266500;2023-05-14T15:43:33;23.90;67.20
13211;DHT22;6670;51.53087800;7.23266500;2023-05-14T15:46:01;23.70;68.30
13211;DHT22;6670;51.53087800;7.23266500;2023-05-14T15:48:28;23.40;71.00
13211;DHT22;6670;51.53087800;7.23266500;2023-05-14T15:50:58;23.40;72.20
13211;DHT22;6670;51.53087800;7.23266500;2023-05-14T15:53:25;23.40;72.50
13211;DHT22;6670;51.53087800;7.23266500;2023-05-14T15:55:54;23.40;72.80
13211;DHT22;6670;51.53087800;7.23266500;2023-05-14T15:58:22;23.30;70.30
13211;DHT22;6670;51.53087800;7.23266500;2023-05-14T16:00:49;23.20;69.30
13211;DHT22;6670;51.53087800;7.23266500;2023-05-14T16:03:16;23.20;70.30
13211;DHT22;6670;51.53087800;7.23266500;2023-05-14T16:05:44;23.10;68.60
13211;DHT22;6670;51.53087800;7.23266500;2023-05-14T16:08:11;23.00;70.00
13211;DHT22;6670;51.53087800;7.23266500;2023-05-14T16:10:39;23.10;70.70
13211;DHT22;6670;51.53087800;7.23266500;2023-05-14T16:13:09;23.40;71.10
13211;DHT22;6670;51.53087800;7.23266500;2023-05-14T16:15:36;23.60;72.40
13211;DHT22;6670;51.53087800;7.23266500;2023-05-14T16:18:05;23.30;70.40
13211;DHT22;6670;51.53087800;7.23266500;2023-05-14T16:20:49;23.50;71.20
13211;DHT22;6670;51.53087800;7.23266500;2023-05-14T16:23:17;23.60;71.70
13211;DHT22;6670;51.53087800;7.23266500;2023-05-14T16:25:45;23.70;71.80
13211;DHT22;6670;51.53087800;7.23266500;2023-05-14T16:28:13;23.20;72.60
13211;DHT22;6670;51.53087800;7.23266500;2023-05-14T16:30:41;23.30;70.10
13211;DHT22;6670;51.53087800;7.23266500;2023-05-14T16:33:08;23.40;70.40
13211;DHT22;6670;51.53087800;7.23266500;2023-05-14T16:35:36;23.30;70.80
13211;DHT22;6670;51.53087800;7.23266500;2023-05-14T16:38:04;23.50;70.70
13211;DHT22;6670;51.53087800;7.23266500;2023-05-14T16:41:04;23.60;70.80
13211;DHT22;6670;51.53087800;7.23266500;2023-05-14T16:43:35;23.40;71.90
13211;DHT22;6670;51.53087800;7.23266500;2023-05-14T16:46:03;23.10;71.40
13211;DHT22;6670;51.53087800;7.23266500;2023-05-14T16:48:31;22.90;73.80
13211;DHT22;6670;51.53087800;7.23266500;2023-05-14T16:50:58;22.80;73.50
13211;DHT22;6670;51.53087800;7.23266500;2023-05-14T16:56:36;22.30;74.40
13211;DHT22;6670;51.53087800;7.23266500;2023-05-14T16:59:07;22.40;76.30
13211;DHT22;6670;51.53087800;7.23266500;2023-05-14T17:01:34;22.40;76.30
13211;DHT22;6670;51.53087800;7.23266500;2023-05-14T17:04:02;22.40;76.60
13211;DHT22;6670;51.53087800;7.23266500;2023-05-14T17:06:29;22.30;75.30
13211;DHT22;6670;51.53087800;7.23266500;2023-05-14T17:08:58;22.20;75.20
13211;DHT22;6670;51.53087800;7.23266500;2023-05-14T17:11:25;22.20;75.20
13211;DHT22;6670;51.53087800;7.23266500;2023-05-14T17:13:53;22.20;74.30
13211;DHT22;6670;51.53087800;7.23266500;2023-05-14T17:16:22;22.10;74.50
13211;DHT22;6670;51.53087800;7.23266500;2023-05-14T17:18:50;22.10;73.40
13211;DHT22;6670;51.53087800;7.23266500;2023-05-14T17:21:17;21.90;73.70
13211;DHT22;6670;51.53087800;7.23266500;2023-05-14T17:23:45;22.00;73.00
13211;DHT22;6670;51.53087800;7.23266500;2023-05-14T17:26:12;21.90;73.50
13211;DHT22;6670;51.53087800;7.23266500;2023-05-14T17:28:46;21.90;73.60
13211;DHT22;6670;51.53087800;7.23266500;2023-05-14T17:31:13;22.00;74.60
13211;DHT22;6670;51.53087800;7.23266500;2023-05-14T17:33:42;22.10;74.90
13211;DHT22;6670;51.53087800;7.23266500;2023-05-14T17:36:17;22.10;76.40
13211;DHT22;6670;51.53087800;7.23266500;2023-05-14T17:38:45;22.10;77.00
13211;DHT22;6670;51.53087800;7.23266500;2023-05-14T17:41:13;22.00;77.80
13211;DHT22;6670;51.53087800;7.23266500;2023-05-14T17:43:40;22.00;78.00
13211;DHT22;6670;51.53087800;7.23266500;2023-05-14T17:46:09;21.90;77.90
13211;DHT22;6670;51.53087800;7.23266500;2023-05-14T17:48:36;21.90;79.50
13211;DHT22;6670;51.53087800;7.23266500;2023-05-14T17:51:05;21.80;80.90
13211;DHT22;6670;51.53087800;7.23266500;2023-05-14T17:53:32;21.80;81.10
13211;DHT22;6670;51.53087800;7.23266500;2023-05-14T17:56:00;21.70;82.80
13211;DHT22;6670;51.53087800;7.23266500;2023-05-14T17:58:27;21.60;82.40
13211;DHT22;6670;51.53087800;7.23266500;2023-05-14T18:00:54;21.50;84.70
13211;DHT22;6670;51.53087800;7.23266500;2023-05-14T18:03:22;21.50;86.10
13211;DHT22;6670;51.53087800;7.23266500;2023-05-14T18:05:49;21.50;86.40
13211;DHT22;6670;51.53087800;7.23266500;2023-05-14T18:08:18;21.50;86.60
13211;DHT22;6670;51.53087800;7.23266500;2023-05-14T18:10:46;21.50;87.50
13211;DHT22;6670;51.53087800;7.23266500;2023-05-14T18:13:13;21.30;88.20
13211;DHT22;6670;51.53087800;7.23266500;2023-05-14T18:15:40;21.30;88.10
13211;DHT22;6670;51.53087800;7.23266500;2023-05-14T18:18:08;21.30;90.20
13211;DHT22;6670;51.53087800;7.23266500;2023-05-14T18:20:43;21.30;89.90
13211;DHT22;6670;51.53087800;7.23266500;2023-05-14T18:23:10;21.20;90.40
13211;DHT22;6670;51.53087800;7.23266500;2023-05-14T18:25:39;21.20;90.20
13211;DHT22;6670;51.53087800;7.23266500;2023-05-14T18:28:07;21.20;90.60
13211;DHT22;6670;51.53087800;7.23266500;2023-05-14T18:30:34;21.20;91.00
13211;DHT22;6670;51.53087800;7.23266500;2023-05-14T18:33:02;21.10;91.10
13211;DHT22;6670;51.53087800;7.23266500;2023-05-14T18:35:32;21.00;91.70
13211;DHT22;6670;51.53087800;7.23266500;2023-05-14T18:38:05;20.90;91.90
13211;DHT22;6670;51.53087800;7.23266500;2023-05-14T18:40:54;20.90;92.40
13211;DHT22;6670;51.53087800;7.23266500;2023-05-14T18:43:24;20.80;92.30
13211;DHT22;6670;51.53087800;7.23266500;2023-05-14T18:46:24;20.60;92.30
13211;DHT22;6670;51.53087800;7.23266500;2023-05-14T18:48:55;20.40;92.70
13211;DHT22;6670;51.53087800;7.23266500;2023-05-14T18:51:23;20.40;92.70
13211;DHT22;6670;51.53087800;7.23266500;2023-05-14T18:53:50;20.40;92.70
13211;DHT22;6670;51.53087800;7.23266500;2023-05-14T18:56:19;20.30;92.80
13211;DHT22;6670;51.53087800;7.23266500;2023-05-14T18:58:46;20.30;92.50
13211;DHT22;6670;51.53087800;7.23266500;2023-05-14T19:01:14;20.40;92.40
13211;DHT22;6670;51.53087800;7.23266500;2023-05-14T19:03:41;20.20;91.50
13211;DHT22;6670;51.53087800;7.23266500;2023-05-14T19:06:09;20.00;91.40
13211;DHT22;6670;51.53087800;7.23266500;2023-05-14T19:08:36;19.60;91.90
13211;DHT22;6670;51.53087800;7.23266500;2023-05-14T19:11:03;19.20;92.60
13211;DHT22;6670;51.53087800;7.23266500;2023-05-14T19:13:32;19.10;93.70
13211;DHT22;6670;51.53087800;7.23266500;2023-05-14T19:16:01;19.00;93.50
13211;DHT22;6670;51.53087800;7.23266500;2023-05-14T19:18:31;18.90;93.80
13211;DHT22;6670;51.53087800;7.23266500;2023-05-14T19:20:58;18.90;94.20
13211;DHT22;6670;51.53087800;7.23266500;2023-05-14T19:23:26;18.80;94.60
13211;DHT22;6670;51.53087800;7.23266500;2023-05-14T19:25:55;18.80;94.80
13211;DHT22;6670;51.53087800;7.23266500;2023-05-14T19:28:35;19.00;97.90
13211;DHT22;6670;51.53087800;7.23266500;2023-05-14T19:31:04;19.20;97.10
13211;DHT22;6670;51.53087800;7.23266500;2023-05-14T19:33:31;19.20;96.90
13211;DHT22;6670;51.53087800;7.23266500;2023-05-14T19:35:58;19.20;98.10
13211;DHT22;6670;51.53087800;7.23266500;2023-05-14T19:38:26;19.30;96.90
13211;DHT22;6670;51.53087800;7.23266500;2023-05-14T19:40:54;19.20;96.70
13211;DHT22;6670;51.53087800;7.23266500;2023-05-14T19:43:22;19.30;95.20
13211;DHT22;6670;51.53087800;7.23266500;2023-05-14T19:45:51;19.30;95.60
13211;DHT22;6670;51.53087800;7.23266500;2023-05-14T19:48:19;19.40;96.40
13211;DHT22;6670;51.53087800;7.23266500;2023-05-14T19:50:46;19.40;97.70
13211;DHT22;6670;51.53087800;7.23266500;2023-05-14T19:53:14;19.30;98.70
13211;DHT22;6670;51.53087800;7.23266500;2023-05-14T19:55:43;19.10;99.90
13211;DHT22;6670;51.53087800;7.23266500;2023-05-14T19:58:10;18.90;99.40
13211;DHT22;6670;51.53087800;7.23266500;2023-05-14T20:00:37;18.70;99.80
13211;DHT22;6670;51.53087800;7.23266500;2023-05-14T20:03:10;18.40;99.90
13211;DHT22;6670;51.53087800;7.23266500;2023-05-14T20:05:38;18.40;99.90
13211;DHT22;6670;51.53087800;7.23266500;2023-05-14T20:08:06;18.10;99.90
13211;DHT22;6670;51.53087800;7.23266500;2023-05-14T20:10:34;18.00;99.90
13211;DHT22;6670;51.53087800;7.23266500;2023-05-14T20:13:01;18.10;99.90
13211;DHT22;6670;51.53087800;7.23266500;2023-05-14T20:15:29;18.30;99.90
13211;DHT22;6670;51.53087800;7.23266500;2023-05-14T20:17:57;18.40;99.90
13211;DHT22;6670;51.53087800;7.23266500;2023-05-14T20:20:30;18.60;99.90
13211;DHT22;6670;51.53087800;7.23266500;2023-05-14T20:22:58;18.20;99.90
13211;DHT22;6670;51.53087800;7.23266500;2023-05-14T20:25:25;18.00;99.90
13211;DHT22;6670;51.53087800;7.23266500;2023-05-14T20:27:53;17.90;99.90
13211;DHT22;6670;51.53087800;7.23266500;2023-05-14T20:30:21;17.90;99.90
13211;DHT22;6670;51.53087800;7.23266500;2023-05-14T20:32:49;18.00;99.90
13211;DHT22;6670;51.53087800;7.23266500;2023-05-14T20:35:16;17.90;99.90
13211;DHT22;6670;51.53087800;7.23266500;2023-05-14T20:37:45;17.80;99.90
13211;DHT22;6670;51.53087800;7.23266500;2023-05-14T20:40:14;17.70;99.90
13211;DHT22;6670;51.53087800;7.23266500;2023-05-14T20:42:41;17.50;99.90
13211;DHT22;6670;51.53087800;7.23266500;2023-05-14T20:45:10;17.30;99.90
13211;DHT22;6670;51.53087800;7.23266500;2023-05-14T20:47:42;17.70;99.90
13211;DHT22;6670;51.53087800;7.23266500;2023-05-14T20:50:12;17.90;99.90
13211;DHT22;6670;51.53087800;7.23266500;2023-05-14T20:52:40;17.90;99.90
13211;DHT22;6670;51.53087800;7.23266500;2023-05-14T20:55:11;18.00;99.90
13211;DHT22;6670;51.53087800;7.23266500;2023-05-14T20:57:42;18.00;99.90
13211;DHT22;6670;51.53087800;7.23266500;2023-05-14T21:00:24;18.00;99.90
13211;DHT22;6670;51.53087800;7.23266500;2023-05-14T21:02:52;17.90;99.90
13211;DHT22;6670;51.53087800;7.23266500;2023-05-14T21:05:19;17.90;99.90
13211;DHT22;6670;51.53087800;7.23266500;2023-05-14T21:08:11;17.90;99.90
13211;DHT22;6670;51.53087800;7.23266500;2023-05-14T21:10:39;17.90;99.90
13211;DHT22;6670;51.53087800;7.23266500;2023-05-14T21:13:18;18.00;99.90
13211;DHT22;6670;51.53087800;7.23266500;2023-05-14T21:15:46;18.10;99.90
13211;DHT22;6670;51.53087800;7.23266500;2023-05-14T21:18:13;17.90;99.90
13211;DHT22;6670;51.53087800;7.23266500;2023-05-14T21:20:41;17.40;99.90
13211;DHT22;6670;51.53087800;7.23266500;2023-05-14T21:23:08;17.20;99.90
13211;DHT22;6670;51.53087800;7.23266500;2023-05-14T21:25:35;17.10;99.90
13211;DHT22;6670;51.53087800;7.23266500;2023-05-14T21:28:07;17.40;99.90
13211;DHT22;6670;51.53087800;7.23266500;2023-05-14T21:30:34;17.40;99.90
13211;DHT22;6670;51.53087800;7.23266500;2023-05-14T21:33:01;17.30;99.90
13211;DHT22;6670;51.53087800;7.23266500;2023-05-14T21:35:29;17.30;99.90
13211;DHT22;6670;51.53087800;7.23266500;2023-05-14T21:37:56;17.40;99.90
13211;DHT22;6670;51.53087800;7.23266500;2023-05-14T21:40:24;17.40;99.90
13211;DHT22;6670;51.53087800;7.23266500;2023-05-14T21:42:51;17.50;99.90
13211;DHT22;6670;51.53087800;7.23266500;2023-05-14T21:45:20;17.50;99.90
13211;DHT22;6670;51.53087800;7.23266500;2023-05-14T21:47:48;17.40;99.90
13211;DHT22;6670;51.53087800;7.23266500;2023-05-14T21:50:15;17.40;99.90
13211;DHT22;6670;51.53087800;7.23266500;2023-05-14T21:52:43;17.50;99.90
13211;DHT22;6670;51.53087800;7.23266500;2023-05-14T21:55:10;17.50;99.90
13211;DHT22;6670;51.53087800;7.23266500;2023-05-14T21:57:38;17.40;99.90
13211;DHT22;6670;51.53087800;7.23266500;2023-05-14T22:00:07;17.50;99.90
13211;DHT22;6670;51.53087800;7.23266500;2023-05-14T22:02:40;17.40;99.90
13211;DHT22;6670;51.53087800;7.23266500;2023-05-14T22:05:07;17.30;99.90
13211;DHT22;6670;51.53087800;7.23266500;2023-05-14T22:07:35;17.10;99.90
13211;DHT22;6670;51.53087800;7.23266500;2023-05-14T22:10:03;16.80;99.90
13211;DHT22;6670;51.53087800;7.23266500;2023-05-14T22:12:31;16.70;99.90
13211;DHT22;6670;51.53087800;7.23266500;2023-05-14T22:14:58;16.40;99.90
13211;DHT22;6670;51.53087800;7.23266500;2023-05-14T22:17:26;16.50;99.90
13211;DHT22;6670;51.53087800;7.23266500;2023-05-14T22:19:55;16.20;99.90
13211;DHT22;6670;51.53087800;7.23266500;2023-05-14T22:22:23;16.10;99.90
13211;DHT22;6670;51.53087800;7.23266500;2023-05-14T22:24:50;16.10;99.90
13211;DHT22;6670;51.53087800;7.23266500;2023-05-14T22:27:18;16.10;99.90
13211;DHT22;6670;51.53087800;7.23266500;2023-05-14T22:29:45;16.30;99.90
13211;DHT22;6670;51.53087800;7.23266500;2023-05-14T22:32:12;16.40;99.90
13211;DHT22;6670;51.53087800;7.23266500;2023-05-14T22:34:40;16.50;99.90
13211;DHT22;6670;51.53087800;7.23266500;2023-05-14T22:37:10;16.50;99.90
13211;DHT22;6670;51.53087800;7.23266500;2023-05-14T22:39:37;16.50;99.90
13211;DHT22;6670;51.53087800;7.23266500;2023-05-14T22:42:05;16.50;99.90
13211;DHT22;6670;51.53087800;7.23266500;2023-05-14T22:44:32;16.50;99.90
13211;DHT22;6670;51.53087800;7.23266500;2023-05-14T22:47:00;16.60;99.90
13211;DHT22;6670;51.53087800;7.23266500;2023-05-14T22:49:27;16.60;99.90
13211;DHT22;6670;51.53087800;7.23266500;2023-05-14T22:51:55;16.50;99.90
13211;DHT22;6670;51.53087800;7.23266500;2023-05-14T22:54:24;16.30;99.90
13211;DHT22;6670;51.53087800;7.23266500;2023-05-14T22:56:51;15.90;99.90
13211;DHT22;6670;51.53087800;7.23266500;2023-05-14T22:59:19;15.90;99.90
13211;DHT22;6670;51.53087800;7.23266500;2023-05-14T23:01:47;16.00;99.90
13211;DHT22;6670;51.53087800;7.23266500;2023-05-14T23:04:14;16.20;99.90
13211;DHT22;6670;51.53087800;7.23266500;2023-05-14T23:06:41;16.40;99.90
13211;DHT22;6670;51.53087800;7.23266500;2023-05-14T23:09:09;16.50;99.90
13211;DHT22;6670;51.53087800;7.23266500;2023-05-14T23:11:38;16.30;99.90
13211;DHT22;6670;51.53087800;7.23266500;2023-05-14T23:14:05;16.00;99.90
13211;DHT22;6670;51.53087800;7.23266500;2023-05-14T23:16:33;15.90;99.90
13211;DHT22;6670;51.53087800;7.23266500;2023-05-14T23:19:00;16.10;99.90
13211;DHT22;6670;51.53087800;7.23266500;2023-05-14T23:21:28;15.80;99.90
13211;DHT22;6670;51.53087800;7.23266500;2023-05-14T23:23:55;15.80;99.90
13211;DHT22;6670;51.53087800;7.23266500;2023-05-14T23:26:22;15.80;99.90
13211;DHT22;6670;51.53087800;7.23266500;2023-05-14T23:28:51;15.40;99.90
13211;DHT22;6670;51.53087800;7.23266500;2023-05-14T23:31:19;15.30;99.90
13211;DHT22;6670;51.53087800;7.23266500;2023-05-14T23:33:47;15.30;99.90
13211;DHT22;6670;51.53087800;7.23266500;2023-05-14T23:36:14;15.00;99.90
13211;DHT22;6670;51.53087800;7.23266500;2023-05-14T23:38:42;15.30;99.90
13211;DHT22;6670;51.53087800;7.23266500;2023-05-14T23:41:09;15.30;99.90
13211;DHT22;6670;51.53087800;7.23266500;2023-05-14T23:43:37;15.30;99.90
13211;DHT22;6670;51.53087800;7.23266500;2023-05-14T23:46:06;15.50;99.90
13211;DHT22;6670;51.53087800;7.23266500;2023-05-14T23:48:33;15.70;99.90
13211;DHT22;6670;51.53087800;7.23266500;2023-05-14T23:51:01;15.30;99.90
13211;DHT22;6670;51.53087800;7.23266500;2023-05-14T23:53:28;15.20;99.90
13211;DHT22;6670;51.53087800;7.23266500;2023-05-14T23:55:56;15.20;99.90
13211;DHT22;6670;51.53087800;7.23266500;2023-05-14T23:58:24;15.20;99.90
